sensor_id;sensor_type;location;lat;lon;timestamp;P1;durP1;ratioP1;P2;durP2;ratioP2
61638;SDS011;47544;52.484;4.658;2023-02-04T00:00:00;28.58;;;4.20;;
61638;SDS011;47544;52.484;4.658;2023-02-04T00:00:12;27.92;;;3.80;;
61638;SDS011;47544;52.484;4.658;2023-02-04T00:00:24;25.10;;;3.30;;
61638;SDS011;47544;52.484;4.658;2023-02-04T00:00:36;22.63;;;3.20;;
61638;SDS011;47544;52.484;4.658;2023-02-04T00:00:48;24.38;;;3.90;;
61638;SDS011;47544;52.484;4.658;2023-02-04T00:00:59;26.42;;;4.15;;
61638;SDS011;47544;52.484;4.658;2023-02-04T00:01:10;26.77;;;4.15;;
61638;SDS011;47544;52.484;4.658;2023-02-04T00:01:21;25.13;;;3.90;;
61638;SDS011;47544;52.484;4.658;2023-02-04T00:01:32;25.27;;;3.90;;
61638;SDS011;47544;52.484;4.658;2023-02-04T00:01:43;27.42;;;3.97;;
61638;SDS011;47544;52.484;4.658;2023-02-04T00:01:55;32.33;;;4.15;;
61638;SDS011;47544;52.484;4.658;2023-02-04T00:02:06;34.10;;;4.68;;
61638;SDS011;47544;52.484;4.658;2023-02-04T00:02:17;32.78;;;4.90;;
61638;SDS011;47544;52.484;4.658;2023-02-04T00:02:28;25.90;;;4.63;;
61638;SDS011;47544;52.484;4.658;2023-02-04T00:02:39;24.35;;;4.70;;
61638;SDS011;47544;52.484;4.658;2023-02-04T00:02:50;27.05;;;4.78;;
61638;SDS011;47544;52.484;4.658;2023-02-04T00:03:01;30.77;;;4.70;;
61638;SDS011;47544;52.484;4.658;2023-02-04T00:03:13;31.38;;;4.28;;
61638;SDS011;47544;52.484;4.658;2023-02-04T00:03:24;27.50;;;3.65;;
61638;SDS011;47544;52.484;4.658;2023-02-04T00:03:35;29.23;;;3.88;;
61638;SDS011;47544;52.484;4.658;2023-02-04T00:03:47;27.67;;;4.00;;
61638;SDS011;47544;52.484;4.658;2023-02-04T00:03:58;26.98;;;3.78;;
61638;SDS011;47544;52.484;4.658;2023-02-04T00:04:10;24.48;;;3.28;;
61638;SDS011;47544;52.484;4.658;2023-02-04T00:04:21;27.75;;;3.67;;
61638;SDS011;47544;52.484;4.658;2023-02-04T00:04:32;28.13;;;3.97;;
61638;SDS011;47544;52.484;4.658;2023-02-04T00:04:44;28.42;;;3.75;;
61638;SDS011;47544;52.484;4.658;2023-02-04T00:04:55;25.55;;;3.42;;
61638;SDS011;47544;52.484;4.658;2023-02-04T00:05:06;23.73;;;3.22;;
61638;SDS011;47544;52.484;4.658;2023-02-04T00:05:17;26.02;;;3.40;;
61638;SDS011;47544;52.484;4.658;2023-02-04T00:05:28;25.02;;;3.33;;
61638;SDS011;47544;52.484;4.658;2023-02-04T00:05:39;26.17;;;3.47;;
61638;SDS011;47544;52.484;4.658;2023-02-04T00:05:52;25.15;;;3.33;;
61638;SDS011;47544;52.484;4.658;2023-02-04T00:06:05;28.35;;;3.83;;
61638;SDS011;47544;52.484;4.658;2023-02-04T00:06:16;27.73;;;3.85;;
61638;SDS011;47544;52.484;4.658;2023-02-04T00:06:27;28.60;;;4.13;;
61638;SDS011;47544;52.484;4.658;2023-02-04T00:06:38;28.95;;;4.10;;
61638;SDS011;47544;52.484;4.658;2023-02-04T00:06:50;30.55;;;4.30;;
61638;SDS011;47544;52.484;4.658;2023-02-04T00:07:00;28.67;;;4.05;;
61638;SDS011;47544;52.484;4.658;2023-02-04T00:07:11;32.67;;;4.22;;
61638;SDS011;47544;52.484;4.658;2023-02-04T00:07:22;30.75;;;3.97;;
61638;SDS011;47544;52.484;4.658;2023-02-04T00:07:34;23.80;;;3.67;;
61638;SDS011;47544;52.484;4.658;2023-02-04T00:07:45;21.05;;;3.33;;
61638;SDS011;47544;52.484;4.658;2023-02-04T00:07:56;21.67;;;3.45;;
61638;SDS011;47544;52.484;4.658;2023-02-04T00:08:07;23.88;;;3.75;;
61638;SDS011;47544;52.484;4.658;2023-02-04T00:08:19;27.30;;;3.88;;
61638;SDS011;47544;52.484;4.658;2023-02-04T00:08:29;29.37;;;4.07;;
61638;SDS011;47544;52.484;4.658;2023-02-04T00:08:40;28.15;;;3.80;;
61638;SDS011;47544;52.484;4.658;2023-02-04T00:08:51;26.73;;;3.65;;
61638;SDS011;47544;52.484;4.658;2023-02-04T00:09:02;27.55;;;3.78;;
61638;SDS011;47544;52.484;4.658;2023-02-04T00:09:16;29.15;;;3.97;;
61638;SDS011;47544;52.484;4.658;2023-02-04T00:09:27;28.13;;;4.22;;
61638;SDS011;47544;52.484;4.658;2023-02-04T00:09:38;23.20;;;3.97;;
61638;SDS011;47544;52.484;4.658;2023-02-04T00:09:49;25.25;;;4.38;;
61638;SDS011;47544;52.484;4.658;2023-02-04T00:10:00;29.55;;;4.80;;
61638;SDS011;47544;52.484;4.658;2023-02-04T00:10:11;29.90;;;4.68;;
61638;SDS011;47544;52.484;4.658;2023-02-04T00:10:21;26.77;;;4.27;;
61638;SDS011;47544;52.484;4.658;2023-02-04T00:10:33;23.50;;;3.60;;
61638;SDS011;47544;52.484;4.658;2023-02-04T00:10:45;27.67;;;3.70;;
61638;SDS011;47544;52.484;4.658;2023-02-04T00:10:57;32.28;;;4.03;;
61638;SDS011;47544;52.484;4.658;2023-02-04T00:11:07;30.45;;;4.20;;
61638;SDS011;47544;52.484;4.658;2023-02-04T00:11:18;30.02;;;4.15;;
61638;SDS011;47544;52.484;4.658;2023-02-04T00:11:29;28.77;;;3.87;;
61638;SDS011;47544;52.484;4.658;2023-02-04T00:11:40;28.02;;;4.00;;
61638;SDS011;47544;52.484;4.658;2023-02-04T00:11:51;27.20;;;4.05;;
61638;SDS011;47544;52.484;4.658;2023-02-04T00:12:02;27.30;;;3.90;;
61638;SDS011;47544;52.484;4.658;2023-02-04T00:12:14;27.92;;;3.75;;
61638;SDS011;47544;52.484;4.658;2023-02-04T00:12:25;26.45;;;3.70;;
61638;SDS011;47544;52.484;4.658;2023-02-04T00:12:36;25.98;;;4.18;;
61638;SDS011;47544;52.484;4.658;2023-02-04T00:12:47;22.65;;;4.05;;
61638;SDS011;47544;52.484;4.658;2023-02-04T00:12:58;22.50;;;4.00;;
61638;SDS011;47544;52.484;4.658;2023-02-04T00:13:09;24.77;;;3.92;;
61638;SDS011;47544;52.484;4.658;2023-02-04T00:13:20;24.33;;;3.80;;
61638;SDS011;47544;52.484;4.658;2023-02-04T00:13:32;24.15;;;3.47;;
61638;SDS011;47544;52.484;4.658;2023-02-04T00:13:43;23.40;;;3.60;;
61638;SDS011;47544;52.484;4.658;2023-02-04T00:13:54;24.35;;;3.65;;
61638;SDS011;47544;52.484;4.658;2023-02-04T00:14:05;23.88;;;3.83;;
61638;SDS011;47544;52.484;4.658;2023-02-04T00:14:15;23.23;;;3.38;;
61638;SDS011;47544;52.484;4.658;2023-02-04T00:14:26;23.20;;;3.42;;
61638;SDS011;47544;52.484;4.658;2023-02-04T00:14:37;26.10;;;3.53;;
61638;SDS011;47544;52.484;4.658;2023-02-04T00:14:49;26.05;;;3.58;;
61638;SDS011;47544;52.484;4.658;2023-02-04T00:15:00;26.25;;;3.45;;
61638;SDS011;47544;52.484;4.658;2023-02-04T00:15:11;23.55;;;3.70;;
61638;SDS011;47544;52.484;4.658;2023-02-04T00:15:22;26.48;;;3.80;;
61638;SDS011;47544;52.484;4.658;2023-02-04T00:15:33;26.67;;;3.72;;
61638;SDS011;47544;52.484;4.658;2023-02-04T00:15:45;24.83;;;3.22;;
61638;SDS011;47544;52.484;4.658;2023-02-04T00:15:56;24.98;;;3.38;;
61638;SDS011;47544;52.484;4.658;2023-02-04T00:16:07;26.43;;;3.73;;
61638;SDS011;47544;52.484;4.658;2023-02-04T00:16:18;28.75;;;3.97;;
61638;SDS011;47544;52.484;4.658;2023-02-04T00:16:29;31.77;;;4.32;;
61638;SDS011;47544;52.484;4.658;2023-02-04T00:16:40;32.08;;;4.75;;
61638;SDS011;47544;52.484;4.658;2023-02-04T00:16:51;27.08;;;4.05;;
61638;SDS011;47544;52.484;4.658;2023-02-04T00:17:03;21.65;;;3.33;;
61638;SDS011;47544;52.484;4.658;2023-02-04T00:17:13;22.30;;;3.10;;
61638;SDS011;47544;52.484;4.658;2023-02-04T00:17:24;23.95;;;3.67;;
61638;SDS011;47544;52.484;4.658;2023-02-04T00:17:35;29.60;;;3.85;;
61638;SDS011;47544;52.484;4.658;2023-02-04T00:17:47;31.48;;;4.13;;
61638;SDS011;47544;52.484;4.658;2023-02-04T00:17:59;26.73;;;3.60;;
61638;SDS011;47544;52.484;4.658;2023-02-04T00:18:11;25.60;;;3.22;;
61638;SDS011;47544;52.484;4.658;2023-02-04T00:18:22;24.88;;;3.15;;
61638;SDS011;47544;52.484;4.658;2023-02-04T00:18:33;27.60;;;3.65;;
61638;SDS011;47544;52.484;4.658;2023-02-04T00:18:43;27.92;;;3.67;;
61638;SDS011;47544;52.484;4.658;2023-02-04T00:18:54;30.10;;;3.97;;
61638;SDS011;47544;52.484;4.658;2023-02-04T00:19:05;30.77;;;3.70;;
61638;SDS011;47544;52.484;4.658;2023-02-04T00:19:16;30.73;;;3.90;;
61638;SDS011;47544;52.484;4.658;2023-02-04T00:19:27;27.92;;;3.83;;
61638;SDS011;47544;52.484;4.658;2023-02-04T00:19:39;25.20;;;3.60;;
61638;SDS011;47544;52.484;4.658;2023-02-04T00:19:50;25.95;;;3.72;;
61638;SDS011;47544;52.484;4.658;2023-02-04T00:20:01;28.05;;;4.10;;
61638;SDS011;47544;52.484;4.658;2023-02-04T00:20:12;32.30;;;4.45;;
61638;SDS011;47544;52.484;4.658;2023-02-04T00:20:23;31.38;;;4.18;;
61638;SDS011;47544;52.484;4.658;2023-02-04T00:20:34;31.67;;;4.07;;
61638;SDS011;47544;52.484;4.658;2023-02-04T00:20:45;28.40;;;3.90;;
61638;SDS011;47544;52.484;4.658;2023-02-04T00:20:57;25.33;;;3.50;;
61638;SDS011;47544;52.484;4.658;2023-02-04T00:21:09;25.23;;;3.45;;
61638;SDS011;47544;52.484;4.658;2023-02-04T00:21:20;27.60;;;3.67;;
61638;SDS011;47544;52.484;4.658;2023-02-04T00:21:31;29.10;;;3.95;;
61638;SDS011;47544;52.484;4.658;2023-02-04T00:21:42;29.17;;;4.10;;
61638;SDS011;47544;52.484;4.658;2023-02-04T00:21:53;28.77;;;3.83;;
61638;SDS011;47544;52.484;4.658;2023-02-04T00:22:04;28.73;;;4.05;;
61638;SDS011;47544;52.484;4.658;2023-02-04T00:22:16;24.20;;;3.58;;
61638;SDS011;47544;52.484;4.658;2023-02-04T00:22:27;26.95;;;3.72;;
61638;SDS011;47544;52.484;4.658;2023-02-04T00:22:39;30.02;;;3.90;;
61638;SDS011;47544;52.484;4.658;2023-02-04T00:22:50;29.95;;;3.78;;
61638;SDS011;47544;52.484;4.658;2023-02-04T00:23:01;26.35;;;3.50;;
61638;SDS011;47544;52.484;4.658;2023-02-04T00:23:12;25.77;;;3.67;;
61638;SDS011;47544;52.484;4.658;2023-02-04T00:23:23;27.73;;;3.90;;
61638;SDS011;47544;52.484;4.658;2023-02-04T00:23:33;30.83;;;4.22;;
61638;SDS011;47544;52.484;4.658;2023-02-04T00:23:44;32.63;;;4.32;;
61638;SDS011;47544;52.484;4.658;2023-02-04T00:23:55;32.40;;;4.78;;
61638;SDS011;47544;52.484;4.658;2023-02-04T00:24:07;29.52;;;4.40;;
61638;SDS011;47544;52.484;4.658;2023-02-04T00:24:19;25.77;;;3.90;;
61638;SDS011;47544;52.484;4.658;2023-02-04T00:24:30;23.70;;;3.33;;
61638;SDS011;47544;52.484;4.658;2023-02-04T00:24:41;23.02;;;3.22;;
61638;SDS011;47544;52.484;4.658;2023-02-04T00:24:52;23.90;;;3.22;;
61638;SDS011;47544;52.484;4.658;2023-02-04T00:25:03;27.15;;;3.60;;
61638;SDS011;47544;52.484;4.658;2023-02-04T00:25:14;27.52;;;3.85;;
61638;SDS011;47544;52.484;4.658;2023-02-04T00:25:26;30.77;;;4.05;;
61638;SDS011;47544;52.484;4.658;2023-02-04T00:25:38;28.40;;;3.50;;
61638;SDS011;47544;52.484;4.658;2023-02-04T00:25:49;26.33;;;3.58;;
61638;SDS011;47544;52.484;4.658;2023-02-04T00:26:00;28.85;;;3.85;;
61638;SDS011;47544;52.484;4.658;2023-02-04T00:26:11;28.33;;;3.95;;
61638;SDS011;47544;52.484;4.658;2023-02-04T00:26:22;27.60;;;3.95;;
61638;SDS011;47544;52.484;4.658;2023-02-04T00:26:33;25.60;;;3.65;;
61638;SDS011;47544;52.484;4.658;2023-02-04T00:26:44;30.35;;;4.07;;
61638;SDS011;47544;52.484;4.658;2023-02-04T00:26:55;30.88;;;4.07;;
61638;SDS011;47544;52.484;4.658;2023-02-04T00:27:06;28.70;;;3.78;;
61638;SDS011;47544;52.484;4.658;2023-02-04T00:27:18;27.00;;;3.50;;
61638;SDS011;47544;52.484;4.658;2023-02-04T00:27:28;26.83;;;3.67;;
61638;SDS011;47544;52.484;4.658;2023-02-04T00:27:39;25.00;;;3.57;;
61638;SDS011;47544;52.484;4.658;2023-02-04T00:27:50;26.37;;;4.00;;
61638;SDS011;47544;52.484;4.658;2023-02-04T00:28:01;25.98;;;3.83;;
61638;SDS011;47544;52.484;4.658;2023-02-04T00:28:13;28.80;;;3.95;;
61638;SDS011;47544;52.484;4.658;2023-02-04T00:28:24;27.90;;;3.80;;
61638;SDS011;47544;52.484;4.658;2023-02-04T00:28:35;26.38;;;3.63;;
61638;SDS011;47544;52.484;4.658;2023-02-04T00:28:47;25.92;;;3.58;;
61638;SDS011;47544;52.484;4.658;2023-02-04T00:28:58;25.80;;;3.70;;
61638;SDS011;47544;52.484;4.658;2023-02-04T00:29:09;24.25;;;3.65;;
61638;SDS011;47544;52.484;4.658;2023-02-04T00:29:20;21.95;;;3.65;;
61638;SDS011;47544;52.484;4.658;2023-02-04T00:29:31;21.63;;;3.45;;
61638;SDS011;47544;52.484;4.658;2023-02-04T00:29:41;22.80;;;3.55;;
61638;SDS011;47544;52.484;4.658;2023-02-04T00:29:53;26.45;;;3.88;;
61638;SDS011;47544;52.484;4.658;2023-02-04T00:30:05;26.00;;;4.03;;
61638;SDS011;47544;52.484;4.658;2023-02-04T00:30:16;24.38;;;3.33;;
61638;SDS011;47544;52.484;4.658;2023-02-04T00:30:27;23.27;;;3.00;;
61638;SDS011;47544;52.484;4.658;2023-02-04T00:30:38;19.58;;;2.70;;
61638;SDS011;47544;52.484;4.658;2023-02-04T00:30:48;19.77;;;3.17;;
61638;SDS011;47544;52.484;4.658;2023-02-04T00:30:59;21.20;;;3.50;;
61638;SDS011;47544;52.484;4.658;2023-02-04T00:31:10;26.08;;;3.92;;
61638;SDS011;47544;52.484;4.658;2023-02-04T00:31:21;27.70;;;3.93;;
61638;SDS011;47544;52.484;4.658;2023-02-04T00:31:32;29.38;;;4.13;;
61638;SDS011;47544;52.484;4.658;2023-02-04T00:31:44;20.83;;;3.17;;
61638;SDS011;47544;52.484;4.658;2023-02-04T00:31:55;16.85;;;2.53;;
61638;SDS011;47544;52.484;4.658;2023-02-04T00:32:06;17.27;;;2.50;;
61638;SDS011;47544;52.484;4.658;2023-02-04T00:32:17;26.58;;;3.67;;
61638;SDS011;47544;52.484;4.658;2023-02-04T00:32:28;30.58;;;4.05;;
61638;SDS011;47544;52.484;4.658;2023-02-04T00:32:38;28.27;;;3.72;;
61638;SDS011;47544;52.484;4.658;2023-02-04T00:32:52;23.67;;;3.08;;
61638;SDS011;47544;52.484;4.658;2023-02-04T00:33:04;22.35;;;2.88;;
61638;SDS011;47544;52.484;4.658;2023-02-04T00:33:16;27.00;;;3.17;;
61638;SDS011;47544;52.484;4.658;2023-02-04T00:33:27;25.85;;;3.35;;
61638;SDS011;47544;52.484;4.658;2023-02-04T00:33:38;23.75;;;3.35;;
61638;SDS011;47544;52.484;4.658;2023-02-04T00:33:52;18.35;;;2.70;;
61638;SDS011;47544;52.484;4.658;2023-02-04T00:34:03;20.33;;;2.63;;
61638;SDS011;47544;52.484;4.658;2023-02-04T00:34:14;21.05;;;2.75;;
61638;SDS011;47544;52.484;4.658;2023-02-04T00:34:24;22.33;;;2.95;;
61638;SDS011;47544;52.484;4.658;2023-02-04T00:34:36;22.15;;;3.05;;
61638;SDS011;47544;52.484;4.658;2023-02-04T00:34:47;25.98;;;3.10;;
61638;SDS011;47544;52.484;4.658;2023-02-04T00:34:58;25.67;;;2.80;;
61638;SDS011;47544;52.484;4.658;2023-02-04T00:35:11;29.48;;;3.35;;
61638;SDS011;47544;52.484;4.658;2023-02-04T00:35:22;29.13;;;3.50;;
61638;SDS011;47544;52.484;4.658;2023-02-04T00:35:33;29.85;;;3.70;;
61638;SDS011;47544;52.484;4.658;2023-02-04T00:35:46;28.27;;;3.50;;
61638;SDS011;47544;52.484;4.658;2023-02-04T00:35:58;27.02;;;3.13;;
61638;SDS011;47544;52.484;4.658;2023-02-04T00:36:11;22.42;;;2.65;;
61638;SDS011;47544;52.484;4.658;2023-02-04T00:36:23;21.95;;;2.78;;
61638;SDS011;47544;52.484;4.658;2023-02-04T00:36:34;25.25;;;3.50;;
61638;SDS011;47544;52.484;4.658;2023-02-04T00:36:46;28.17;;;3.97;;
61638;SDS011;47544;52.484;4.658;2023-02-04T00:36:57;27.80;;;3.63;;
61638;SDS011;47544;52.484;4.658;2023-02-04T00:37:08;26.77;;;3.27;;
61638;SDS011;47544;52.484;4.658;2023-02-04T00:37:19;23.38;;;3.15;;
61638;SDS011;47544;52.484;4.658;2023-02-04T00:37:31;24.35;;;3.50;;
61638;SDS011;47544;52.484;4.658;2023-02-04T00:37:42;24.80;;;3.63;;
61638;SDS011;47544;52.484;4.658;2023-02-04T00:37:53;27.30;;;3.67;;
61638;SDS011;47544;52.484;4.658;2023-02-04T00:38:04;24.70;;;3.63;;
61638;SDS011;47544;52.484;4.658;2023-02-04T00:38:15;26.45;;;3.75;;
61638;SDS011;47544;52.484;4.658;2023-02-04T00:38:26;27.05;;;3.88;;
61638;SDS011;47544;52.484;4.658;2023-02-04T00:38:37;25.17;;;3.47;;
61638;SDS011;47544;52.484;4.658;2023-02-04T00:38:48;20.73;;;3.03;;
61638;SDS011;47544;52.484;4.658;2023-02-04T00:39:00;19.45;;;2.58;;
61638;SDS011;47544;52.484;4.658;2023-02-04T00:39:11;21.70;;;2.75;;
61638;SDS011;47544;52.484;4.658;2023-02-04T00:39:23;23.33;;;3.05;;
61638;SDS011;47544;52.484;4.658;2023-02-04T00:39:35;25.55;;;3.53;;
61638;SDS011;47544;52.484;4.658;2023-02-04T00:39:46;25.05;;;3.55;;
61638;SDS011;47544;52.484;4.658;2023-02-04T00:39:57;26.80;;;3.38;;
61638;SDS011;47544;52.484;4.658;2023-02-04T00:40:08;25.85;;;3.17;;
61638;SDS011;47544;52.484;4.658;2023-02-04T00:40:19;27.73;;;3.50;;
61638;SDS011;47544;52.484;4.658;2023-02-04T00:40:30;28.67;;;3.60;;
61638;SDS011;47544;52.484;4.658;2023-02-04T00:40:42;26.30;;;3.40;;
61638;SDS011;47544;52.484;4.658;2023-02-04T00:40:53;24.30;;;3.22;;
61638;SDS011;47544;52.484;4.658;2023-02-04T00:41:04;26.95;;;3.70;;
61638;SDS011;47544;52.484;4.658;2023-02-04T00:41:16;28.40;;;3.60;;
61638;SDS011;47544;52.484;4.658;2023-02-04T00:41:30;30.08;;;4.03;;
61638;SDS011;47544;52.484;4.658;2023-02-04T00:41:40;27.77;;;3.58;;
61638;SDS011;47544;52.484;4.658;2023-02-04T00:41:52;30.13;;;3.60;;
61638;SDS011;47544;52.484;4.658;2023-02-04T00:42:03;27.20;;;3.40;;
61638;SDS011;47544;52.484;4.658;2023-02-04T00:42:16;27.73;;;3.45;;
61638;SDS011;47544;52.484;4.658;2023-02-04T00:42:27;25.60;;;3.35;;
61638;SDS011;47544;52.484;4.658;2023-02-04T00:42:40;26.92;;;3.53;;
61638;SDS011;47544;52.484;4.658;2023-02-04T00:42:51;24.45;;;3.47;;
61638;SDS011;47544;52.484;4.658;2023-02-04T00:43:02;25.38;;;3.50;;
61638;SDS011;47544;52.484;4.658;2023-02-04T00:43:13;24.88;;;3.20;;
61638;SDS011;47544;52.484;4.658;2023-02-04T00:43:25;24.40;;;3.20;;
61638;SDS011;47544;52.484;4.658;2023-02-04T00:43:36;23.92;;;3.10;;
61638;SDS011;47544;52.484;4.658;2023-02-04T00:43:47;24.02;;;3.13;;
61638;SDS011;47544;52.484;4.658;2023-02-04T00:43:58;25.33;;;3.38;;
61638;SDS011;47544;52.484;4.658;2023-02-04T00:44:09;26.00;;;3.58;;
61638;SDS011;47544;52.484;4.658;2023-02-04T00:44:20;27.33;;;3.58;;
61638;SDS011;47544;52.484;4.658;2023-02-04T00:44:31;30.13;;;3.50;;
61638;SDS011;47544;52.484;4.658;2023-02-04T00:44:43;28.80;;;3.45;;
61638;SDS011;47544;52.484;4.658;2023-02-04T00:44:54;25.67;;;3.42;;
61638;SDS011;47544;52.484;4.658;2023-02-04T00:45:05;22.80;;;3.20;;
61638;SDS011;47544;52.484;4.658;2023-02-04T00:45:16;26.27;;;3.45;;
61638;SDS011;47544;52.484;4.658;2023-02-04T00:45:27;28.27;;;3.42;;
61638;SDS011;47544;52.484;4.658;2023-02-04T00:45:38;25.83;;;3.22;;
61638;SDS011;47544;52.484;4.658;2023-02-04T00:45:48;22.60;;;2.75;;
61638;SDS011;47544;52.484;4.658;2023-02-04T00:45:59;22.60;;;3.10;;
61638;SDS011;47544;52.484;4.658;2023-02-04T00:46:11;24.20;;;3.30;;
61638;SDS011;47544;52.484;4.658;2023-02-04T00:46:22;26.27;;;3.20;;
61638;SDS011;47544;52.484;4.658;2023-02-04T00:46:33;24.27;;;2.83;;
61638;SDS011;47544;52.484;4.658;2023-02-04T00:46:44;23.42;;;2.65;;
61638;SDS011;47544;52.484;4.658;2023-02-04T00:46:55;22.40;;;2.67;;
61638;SDS011;47544;52.484;4.658;2023-02-04T00:47:06;24.52;;;3.15;;
61638;SDS011;47544;52.484;4.658;2023-02-04T00:47:17;28.17;;;3.60;;
61638;SDS011;47544;52.484;4.658;2023-02-04T00:47:29;28.75;;;4.03;;
61638;SDS011;47544;52.484;4.658;2023-02-04T00:47:40;28.23;;;4.10;;
61638;SDS011;47544;52.484;4.658;2023-02-04T00:47:51;27.17;;;3.60;;
61638;SDS011;47544;52.484;4.658;2023-02-04T00:48:02;25.85;;;3.45;;
61638;SDS011;47544;52.484;4.658;2023-02-04T00:48:13;27.25;;;3.20;;
61638;SDS011;47544;52.484;4.658;2023-02-04T00:48:24;26.60;;;3.13;;
61638;SDS011;47544;52.484;4.658;2023-02-04T00:48:35;27.40;;;3.17;;
61638;SDS011;47544;52.484;4.658;2023-02-04T00:48:46;26.48;;;3.33;;
61638;SDS011;47544;52.484;4.658;2023-02-04T00:48:58;27.60;;;3.58;;
61638;SDS011;47544;52.484;4.658;2023-02-04T00:49:09;29.15;;;3.60;;
61638;SDS011;47544;52.484;4.658;2023-02-04T00:49:20;33.25;;;3.83;;
61638;SDS011;47544;52.484;4.658;2023-02-04T00:49:31;34.00;;;4.00;;
61638;SDS011;47544;52.484;4.658;2023-02-04T00:49:42;30.67;;;3.70;;
61638;SDS011;47544;52.484;4.658;2023-02-04T00:49:53;28.67;;;3.13;;
61638;SDS011;47544;52.484;4.658;2023-02-04T00:50:05;27.42;;;2.92;;
61638;SDS011;47544;52.484;4.658;2023-02-04T00:50:17;28.25;;;3.13;;
61638;SDS011;47544;52.484;4.658;2023-02-04T00:50:28;25.13;;;3.30;;
61638;SDS011;47544;52.484;4.658;2023-02-04T00:50:39;30.27;;;4.22;;
61638;SDS011;47544;52.484;4.658;2023-02-04T00:50:49;32.85;;;4.10;;
61638;SDS011;47544;52.484;4.658;2023-02-04T00:51:02;30.55;;;3.60;;
61638;SDS011;47544;52.484;4.658;2023-02-04T00:51:14;30.30;;;3.20;;
61638;SDS011;47544;52.484;4.658;2023-02-04T00:51:25;27.80;;;3.38;;
61638;SDS011;47544;52.484;4.658;2023-02-04T00:51:36;24.08;;;3.15;;
61638;SDS011;47544;52.484;4.658;2023-02-04T00:51:49;24.63;;;3.40;;
61638;SDS011;47544;52.484;4.658;2023-02-04T00:52:00;26.13;;;3.22;;
61638;SDS011;47544;52.484;4.658;2023-02-04T00:52:12;30.40;;;3.47;;
61638;SDS011;47544;52.484;4.658;2023-02-04T00:52:22;33.65;;;3.65;;
61638;SDS011;47544;52.484;4.658;2023-02-04T00:52:33;35.38;;;4.13;;
61638;SDS011;47544;52.484;4.658;2023-02-04T00:52:44;34.85;;;3.80;;
61638;SDS011;47544;52.484;4.658;2023-02-04T00:52:55;36.00;;;3.78;;
61638;SDS011;47544;52.484;4.658;2023-02-04T00:53:06;32.17;;;3.35;;
61638;SDS011;47544;52.484;4.658;2023-02-04T00:53:19;28.67;;;3.50;;
61638;SDS011;47544;52.484;4.658;2023-02-04T00:53:30;32.83;;;3.63;;
61638;SDS011;47544;52.484;4.658;2023-02-04T00:53:41;31.92;;;3.65;;
61638;SDS011;47544;52.484;4.658;2023-02-04T00:53:52;32.72;;;3.83;;
61638;SDS011;47544;52.484;4.658;2023-02-04T00:54:03;27.70;;;3.77;;
61638;SDS011;47544;52.484;4.658;2023-02-04T00:54:14;31.52;;;3.65;;
61638;SDS011;47544;52.484;4.658;2023-02-04T00:54:25;30.25;;;3.50;;
61638;SDS011;47544;52.484;4.658;2023-02-04T00:54:37;28.65;;;3.45;;
61638;SDS011;47544;52.484;4.658;2023-02-04T00:54:48;27.33;;;3.38;;
61638;SDS011;47544;52.484;4.658;2023-02-04T00:54:59;26.30;;;3.43;;
61638;SDS011;47544;52.484;4.658;2023-02-04T00:55:10;25.17;;;3.30;;
61638;SDS011;47544;52.484;4.658;2023-02-04T00:55:21;19.90;;;2.67;;
61638;SDS011;47544;52.484;4.658;2023-02-04T00:55:32;17.63;;;2.17;;
61638;SDS011;47544;52.484;4.658;2023-02-04T00:55:43;22.45;;;2.58;;
61638;SDS011;47544;52.484;4.658;2023-02-04T00:55:54;26.55;;;2.95;;
61638;SDS011;47544;52.484;4.658;2023-02-04T00:56:06;26.10;;;3.10;;
61638;SDS011;47544;52.484;4.658;2023-02-04T00:56:17;23.35;;;3.20;;
61638;SDS011;47544;52.484;4.658;2023-02-04T00:56:28;24.70;;;3.42;;
61638;SDS011;47544;52.484;4.658;2023-02-04T00:56:39;24.17;;;3.30;;
61638;SDS011;47544;52.484;4.658;2023-02-04T00:56:50;25.85;;;3.30;;
61638;SDS011;47544;52.484;4.658;2023-02-04T00:57:01;26.95;;;3.22;;
61638;SDS011;47544;52.484;4.658;2023-02-04T00:57:14;32.45;;;3.78;;
61638;SDS011;47544;52.484;4.658;2023-02-04T00:57:26;31.20;;;3.80;;
61638;SDS011;47544;52.484;4.658;2023-02-04T00:57:37;28.65;;;3.75;;
61638;SDS011;47544;52.484;4.658;2023-02-04T00:57:48;27.42;;;3.60;;
61638;SDS011;47544;52.484;4.658;2023-02-04T00:58:01;26.48;;;3.47;;
61638;SDS011;47544;52.484;4.658;2023-02-04T00:58:12;26.15;;;3.58;;
61638;SDS011;47544;52.484;4.658;2023-02-04T00:58:23;24.55;;;3.40;;
61638;SDS011;47544;52.484;4.658;2023-02-04T00:58:33;26.05;;;3.35;;
61638;SDS011;47544;52.484;4.658;2023-02-04T00:58:44;28.33;;;3.28;;
61638;SDS011;47544;52.484;4.658;2023-02-04T00:58:55;33.33;;;3.70;;
61638;SDS011;47544;52.484;4.658;2023-02-04T00:59:06;35.72;;;3.85;;
61638;SDS011;47544;52.484;4.658;2023-02-04T00:59:19;33.78;;;3.70;;
61638;SDS011;47544;52.484;4.658;2023-02-04T00:59:30;29.65;;;3.20;;
61638;SDS011;47544;52.484;4.658;2023-02-04T00:59:41;32.00;;;3.35;;
61638;SDS011;47544;52.484;4.658;2023-02-04T00:59:51;34.72;;;3.53;;
61638;SDS011;47544;52.484;4.658;2023-02-04T01:00:03;38.13;;;3.90;;
61638;SDS011;47544;52.484;4.658;2023-02-04T01:00:14;33.88;;;3.40;;
61638;SDS011;47544;52.484;4.658;2023-02-04T01:00:25;29.42;;;3.17;;
61638;SDS011;47544;52.484;4.658;2023-02-04T01:00:36;27.42;;;3.15;;
61638;SDS011;47544;52.484;4.658;2023-02-04T01:00:48;24.27;;;3.13;;
61638;SDS011;47544;52.484;4.658;2023-02-04T01:00:59;25.70;;;3.13;;
61638;SDS011;47544;52.484;4.658;2023-02-04T01:01:10;24.80;;;2.95;;
61638;SDS011;47544;52.484;4.658;2023-02-04T01:01:23;30.77;;;3.63;;
61638;SDS011;47544;52.484;4.658;2023-02-04T01:01:34;33.72;;;3.78;;
61638;SDS011;47544;52.484;4.658;2023-02-04T01:01:45;34.78;;;3.78;;
61638;SDS011;47544;52.484;4.658;2023-02-04T01:01:56;32.15;;;3.38;;
61638;SDS011;47544;52.484;4.658;2023-02-04T01:02:07;30.60;;;3.10;;
61638;SDS011;47544;52.484;4.658;2023-02-04T01:02:19;26.13;;;3.00;;
61638;SDS011;47544;52.484;4.658;2023-02-04T01:02:30;25.38;;;3.03;;
61638;SDS011;47544;52.484;4.658;2023-02-04T01:02:41;22.42;;;2.97;;
61638;SDS011;47544;52.484;4.658;2023-02-04T01:02:52;23.42;;;3.08;;
61638;SDS011;47544;52.484;4.658;2023-02-04T01:03:03;24.33;;;3.00;;
61638;SDS011;47544;52.484;4.658;2023-02-04T01:03:14;27.50;;;3.00;;
61638;SDS011;47544;52.484;4.658;2023-02-04T01:03:26;27.98;;;3.22;;
61638;SDS011;47544;52.484;4.658;2023-02-04T01:03:37;29.83;;;3.33;;
61638;SDS011;47544;52.484;4.658;2023-02-04T01:03:48;29.90;;;3.28;;
61638;SDS011;47544;52.484;4.658;2023-02-04T01:03:59;30.92;;;3.42;;
61638;SDS011;47544;52.484;4.658;2023-02-04T01:04:10;30.10;;;3.60;;
61638;SDS011;47544;52.484;4.658;2023-02-04T01:04:21;30.83;;;3.45;;
61638;SDS011;47544;52.484;4.658;2023-02-04T01:04:33;30.48;;;3.80;;
61638;SDS011;47544;52.484;4.658;2023-02-04T01:04:44;28.50;;;3.53;;
61638;SDS011;47544;52.484;4.658;2023-02-04T01:04:55;25.90;;;3.08;;
61638;SDS011;47544;52.484;4.658;2023-02-04T01:05:06;26.38;;;2.80;;
61638;SDS011;47544;52.484;4.658;2023-02-04T01:05:18;29.73;;;3.20;;
61638;SDS011;47544;52.484;4.658;2023-02-04T01:05:28;30.75;;;3.70;;
61638;SDS011;47544;52.484;4.658;2023-02-04T01:05:39;33.10;;;4.00;;
61638;SDS011;47544;52.484;4.658;2023-02-04T01:05:50;33.95;;;4.10;;
61638;SDS011;47544;52.484;4.658;2023-02-04T01:06:02;32.42;;;3.45;;
61638;SDS011;47544;52.484;4.658;2023-02-04T01:06:14;30.42;;;3.33;;
61638;SDS011;47544;52.484;4.658;2023-02-04T01:06:25;31.48;;;3.35;;
61638;SDS011;47544;52.484;4.658;2023-02-04T01:06:36;29.65;;;3.15;;